sensor_id;sensor_type;location;lat;lon;timestamp;P1;durP1;ratioP1;P2;durP2;ratioP2
22363;SDS011;11349;53.412;-1.328;2022-11-21T00:00:49;13.23;;;7.30;;
22363;SDS011;11349;53.412;-1.328;2022-11-21T00:03:17;12.02;;;6.35;;
22363;SDS011;11349;53.412;-1.328;2022-11-21T00:05:44;13.75;;;6.75;;
22363;SDS011;11349;53.412;-1.328;2022-11-21T00:08:12;10.85;;;5.82;;
22363;SDS011;11349;53.412;-1.328;2022-11-21T00:10:39;10.55;;;5.25;;
22363;SDS011;11349;53.412;-1.328;2022-11-21T00:13:06;13.00;;;5.40;;
22363;SDS011;11349;53.412;-1.328;2022-11-21T00:15:36;13.32;;;5.25;;
22363;SDS011;11349;53.412;-1.328;2022-11-21T00:18:02;10.95;;;5.03;;
22363;SDS011;11349;53.412;-1.328;2022-11-21T00:20:28;11.93;;;5.00;;
22363;SDS011;11349;53.412;-1.328;2022-11-21T00:22:54;12.25;;;4.10;;
22363;SDS011;11349;53.412;-1.328;2022-11-21T00:25:20;7.40;;;3.95;;
22363;SDS011;11349;53.412;-1.328;2022-11-21T00:27:46;8.45;;;4.28;;
22363;SDS011;11349;53.412;-1.328;2022-11-21T00:30:12;12.68;;;3.80;;
22363;SDS011;11349;53.412;-1.328;2022-11-21T00:32:38;8.90;;;3.80;;
22363;SDS011;11349;53.412;-1.328;2022-11-21T00:35:04;10.00;;;3.60;;
22363;SDS011;11349;53.412;-1.328;2022-11-21T00:37:31;9.50;;;3.40;;
22363;SDS011;11349;53.412;-1.328;2022-11-21T00:39:57;8.98;;;3.85;;
22363;SDS011;11349;53.412;-1.328;2022-11-21T00:42:23;9.73;;;3.70;;
22363;SDS011;11349;53.412;-1.328;2022-11-21T00:44:48;13.02;;;3.63;;
22363;SDS011;11349;53.412;-1.328;2022-11-21T00:47:14;11.38;;;3.35;;
22363;SDS011;11349;53.412;-1.328;2022-11-21T00:49:40;5.03;;;2.85;;
22363;SDS011;11349;53.412;-1.328;2022-11-21T00:52:05;9.13;;;3.83;;
22363;SDS011;11349;53.412;-1.328;2022-11-21T00:54:31;8.85;;;3.50;;
22363;SDS011;11349;53.412;-1.328;2022-11-21T00:56:57;10.40;;;3.22;;
22363;SDS011;11349;53.412;-1.328;2022-11-21T00:59:22;12.02;;;3.70;;
22363;SDS011;11349;53.412;-1.328;2022-11-21T01:01:48;11.20;;;3.40;;
22363;SDS011;11349;53.412;-1.328;2022-11-21T01:04:14;10.85;;;3.42;;
22363;SDS011;11349;53.412;-1.328;2022-11-21T01:06:40;7.40;;;3.10;;
22363;SDS011;11349;53.412;-1.328;2022-11-21T01:09:11;7.13;;;3.20;;
22363;SDS011;11349;53.412;-1.328;2022-11-21T01:11:37;12.13;;;3.20;;
22363;SDS011;11349;53.412;-1.328;2022-11-21T01:14:03;8.40;;;3.05;;
22363;SDS011;11349;53.412;-1.328;2022-11-21T01:16:29;7.90;;;3.47;;
22363;SDS011;11349;53.412;-1.328;2022-11-21T01:18:55;9.98;;;3.42;;
22363;SDS011;11349;53.412;-1.328;2022-11-21T01:21:24;6.78;;;3.35;;
22363;SDS011;11349;53.412;-1.328;2022-11-21T01:23:51;9.05;;;3.50;;
22363;SDS011;11349;53.412;-1.328;2022-11-21T01:26:22;8.45;;;3.88;;
22363;SDS011;11349;53.412;-1.328;2022-11-21T01:28:50;6.68;;;3.28;;
22363;SDS011;11349;53.412;-1.328;2022-11-21T01:31:17;8.77;;;3.80;;
22363;SDS011;11349;53.412;-1.328;2022-11-21T01:33:47;8.52;;;3.53;;
22363;SDS011;11349;53.412;-1.328;2022-11-21T01:36:14;10.18;;;3.92;;
22363;SDS011;11349;53.412;-1.328;2022-11-21T01:38:43;12.10;;;3.97;;
22363;SDS011;11349;53.412;-1.328;2022-11-21T01:41:10;6.40;;;3.47;;
22363;SDS011;11349;53.412;-1.328;2022-11-21T01:43:38;8.75;;;4.05;;
22363;SDS011;11349;53.412;-1.328;2022-11-21T01:46:14;11.40;;;4.97;;
22363;SDS011;11349;53.412;-1.328;2022-11-21T01:54:13;10.25;;;4.78;;
22363;SDS011;11349;53.412;-1.328;2022-11-21T01:59:14;9.68;;;3.80;;
22363;SDS011;11349;53.412;-1.328;2022-11-21T02:02:07;10.63;;;4.00;;
22363;SDS011;11349;53.412;-1.328;2022-11-21T02:04:35;11.25;;;4.72;;
22363;SDS011;11349;53.412;-1.328;2022-11-21T02:07:04;10.13;;;4.28;;
22363;SDS011;11349;53.412;-1.328;2022-11-21T02:09:32;11.75;;;4.28;;
22363;SDS011;11349;53.412;-1.328;2022-11-21T02:12:01;9.70;;;3.88;;
22363;SDS011;11349;53.412;-1.328;2022-11-21T02:14:32;13.10;;;4.40;;
22363;SDS011;11349;53.412;-1.328;2022-11-21T02:16:59;10.15;;;4.05;;
22363;SDS011;11349;53.412;-1.328;2022-11-21T02:19:35;13.85;;;4.32;;
22363;SDS011;11349;53.412;-1.328;2022-11-21T02:22:23;11.18;;;4.53;;
22363;SDS011;11349;53.412;-1.328;2022-11-21T02:27:29;10.73;;;4.35;;
22363;SDS011;11349;53.412;-1.328;2022-11-21T02:29:55;12.68;;;4.10;;
22363;SDS011;11349;53.412;-1.328;2022-11-21T02:32:24;11.23;;;4.32;;
22363;SDS011;11349;53.412;-1.328;2022-11-21T02:34:58;9.70;;;3.92;;
22363;SDS011;11349;53.412;-1.328;2022-11-21T02:37:24;8.63;;;4.00;;
22363;SDS011;11349;53.412;-1.328;2022-11-21T02:39:50;8.88;;;3.78;;
22363;SDS011;11349;53.412;-1.328;2022-11-21T02:42:19;9.23;;;3.60;;
22363;SDS011;11349;53.412;-1.328;2022-11-21T02:44:53;12.05;;;4.47;;
22363;SDS011;11349;53.412;-1.328;2022-11-21T02:47:38;11.23;;;4.53;;
22363;SDS011;11349;53.412;-1.328;2022-11-21T02:50:09;8.70;;;3.60;;
22363;SDS011;11349;53.412;-1.328;2022-11-21T02:52:35;12.55;;;4.50;;
22363;SDS011;11349;53.412;-1.328;2022-11-21T02:55:01;9.23;;;3.95;;
22363;SDS011;11349;53.412;-1.328;2022-11-21T02:57:26;11.57;;;3.72;;
22363;SDS011;11349;53.412;-1.328;2022-11-21T02:59:54;8.32;;;3.00;;
22363;SDS011;11349;53.412;-1.328;2022-11-21T03:02:20;9.20;;;2.95;;
22363;SDS011;11349;53.412;-1.328;2022-11-21T03:04:45;7.95;;;3.58;;
22363;SDS011;11349;53.412;-1.328;2022-11-21T03:07:11;9.07;;;3.08;;
22363;SDS011;11349;53.412;-1.328;2022-11-21T03:09:37;9.55;;;3.70;;
22363;SDS011;11349;53.412;-1.328;2022-11-21T03:12:06;10.90;;;3.75;;
22363;SDS011;11349;53.412;-1.328;2022-11-21T03:14:34;9.35;;;3.10;;
22363;SDS011;11349;53.412;-1.328;2022-11-21T03:17:00;11.85;;;3.13;;
22363;SDS011;11349;53.412;-1.328;2022-11-21T03:19:27;11.25;;;3.13;;
22363;SDS011;11349;53.412;-1.328;2022-11-21T03:21:52;12.60;;;3.03;;
22363;SDS011;11349;53.412;-1.328;2022-11-21T03:24:18;11.68;;;3.70;;
22363;SDS011;11349;53.412;-1.328;2022-11-21T03:26:44;11.85;;;3.17;;
22363;SDS011;11349;53.412;-1.328;2022-11-21T03:29:10;8.77;;;2.83;;
22363;SDS011;11349;53.412;-1.328;2022-11-21T03:31:36;14.52;;;3.65;;
22363;SDS011;11349;53.412;-1.328;2022-11-21T03:34:01;7.68;;;2.50;;
22363;SDS011;11349;53.412;-1.328;2022-11-21T03:36:30;14.27;;;3.40;;
22363;SDS011;11349;53.412;-1.328;2022-11-21T03:38:55;10.75;;;3.45;;
22363;SDS011;11349;53.412;-1.328;2022-11-21T03:41:22;8.95;;;3.50;;
22363;SDS011;11349;53.412;-1.328;2022-11-21T03:44:01;11.73;;;3.78;;
22363;SDS011;11349;53.412;-1.328;2022-11-21T03:46:32;13.10;;;3.83;;
22363;SDS011;11349;53.412;-1.328;2022-11-21T03:49:00;12.40;;;4.88;;
22363;SDS011;11349;53.412;-1.328;2022-11-21T03:51:26;9.90;;;4.32;;
22363;SDS011;11349;53.412;-1.328;2022-11-21T03:53:52;11.73;;;4.63;;
22363;SDS011;11349;53.412;-1.328;2022-11-21T03:56:18;10.05;;;3.38;;
22363;SDS011;11349;53.412;-1.328;2022-11-21T03:58:44;8.98;;;3.30;;
22363;SDS011;11349;53.412;-1.328;2022-11-21T04:01:10;10.40;;;3.63;;
22363;SDS011;11349;53.412;-1.328;2022-11-21T04:03:38;14.95;;;4.30;;
22363;SDS011;11349;53.412;-1.328;2022-11-21T04:06:04;9.55;;;3.58;;
22363;SDS011;11349;53.412;-1.328;2022-11-21T04:08:30;8.27;;;3.28;;
22363;SDS011;11349;53.412;-1.328;2022-11-21T04:10:56;11.25;;;3.55;;
22363;SDS011;11349;53.412;-1.328;2022-11-21T04:13:22;13.43;;;4.18;;
22363;SDS011;11349;53.412;-1.328;2022-11-21T04:15:51;12.98;;;3.53;;
22363;SDS011;11349;53.412;-1.328;2022-11-21T04:18:17;9.23;;;3.05;;
22363;SDS011;11349;53.412;-1.328;2022-11-21T04:20:42;8.85;;;3.10;;
22363;SDS011;11349;53.412;-1.328;2022-11-21T04:23:08;7.18;;;3.15;;
22363;SDS011;11349;53.412;-1.328;2022-11-21T04:25:34;13.23;;;3.33;;
22363;SDS011;11349;53.412;-1.328;2022-11-21T04:28:00;12.50;;;3.97;;
22363;SDS011;11349;53.412;-1.328;2022-11-21T04:30:27;7.97;;;2.75;;
22363;SDS011;11349;53.412;-1.328;2022-11-21T04:32:54;11.73;;;3.13;;
22363;SDS011;11349;53.412;-1.328;2022-11-21T04:35:20;11.43;;;3.30;;
22363;SDS011;11349;53.412;-1.328;2022-11-21T04:37:47;6.03;;;2.63;;
22363;SDS011;11349;53.412;-1.328;2022-11-21T04:40:13;14.55;;;4.60;;
22363;SDS011;11349;53.412;-1.328;2022-11-21T04:42:40;7.53;;;2.75;;
22363;SDS011;11349;53.412;-1.328;2022-11-21T04:45:06;6.15;;;2.85;;
22363;SDS011;11349;53.412;-1.328;2022-11-21T04:47:36;9.05;;;2.90;;
22363;SDS011;11349;53.412;-1.328;2022-11-21T04:50:02;9.45;;;2.95;;
22363;SDS011;11349;53.412;-1.328;2022-11-21T04:52:29;10.57;;;3.35;;
22363;SDS011;11349;53.412;-1.328;2022-11-21T04:54:54;12.38;;;3.75;;
22363;SDS011;11349;53.412;-1.328;2022-11-21T04:57:21;9.30;;;3.03;;
22363;SDS011;11349;53.412;-1.328;2022-11-21T04:59:47;10.13;;;3.03;;
22363;SDS011;11349;53.412;-1.328;2022-11-21T05:02:12;11.48;;;3.13;;
22363;SDS011;11349;53.412;-1.328;2022-11-21T05:04:38;11.45;;;3.22;;
22363;SDS011;11349;53.412;-1.328;2022-11-21T05:07:04;10.15;;;3.00;;
22363;SDS011;11349;53.412;-1.328;2022-11-21T05:09:30;13.80;;;2.88;;
22363;SDS011;11349;53.412;-1.328;2022-11-21T05:11:55;7.75;;;2.95;;
22363;SDS011;11349;53.412;-1.328;2022-11-21T05:14:40;11.55;;;3.42;;
22363;SDS011;11349;53.412;-1.328;2022-11-21T05:17:05;10.98;;;3.30;;
22363;SDS011;11349;53.412;-1.328;2022-11-21T05:19:34;17.77;;;4.70;;
22363;SDS011;11349;53.412;-1.328;2022-11-21T05:22:02;10.20;;;4.10;;
22363;SDS011;11349;53.412;-1.328;2022-11-21T05:24:28;9.98;;;3.72;;
22363;SDS011;11349;53.412;-1.328;2022-11-21T05:26:53;12.30;;;3.65;;
22363;SDS011;11349;53.412;-1.328;2022-11-21T05:29:19;9.98;;;3.10;;
22363;SDS011;11349;53.412;-1.328;2022-11-21T05:31:45;10.90;;;3.53;;
22363;SDS011;11349;53.412;-1.328;2022-11-21T05:34:11;11.32;;;3.97;;
22363;SDS011;11349;53.412;-1.328;2022-11-21T05:36:36;14.75;;;4.00;;
22363;SDS011;11349;53.412;-1.328;2022-11-21T05:39:05;9.77;;;3.30;;
22363;SDS011;11349;53.412;-1.328;2022-11-21T05:41:30;9.10;;;3.30;;
22363;SDS011;11349;53.412;-1.328;2022-11-21T05:43:56;10.20;;;3.40;;
22363;SDS011;11349;53.412;-1.328;2022-11-21T05:46:23;6.60;;;2.65;;
22363;SDS011;11349;53.412;-1.328;2022-11-21T05:48:49;7.18;;;3.20;;
22363;SDS011;11349;53.412;-1.328;2022-11-21T05:51:16;6.88;;;3.08;;
22363;SDS011;11349;53.412;-1.328;2022-11-21T05:53:43;12.30;;;4.65;;
22363;SDS011;11349;53.412;-1.328;2022-11-21T05:56:10;9.43;;;4.13;;
22363;SDS011;11349;53.412;-1.328;2022-11-21T05:58:38;10.63;;;4.20;;
22363;SDS011;11349;53.412;-1.328;2022-11-21T06:01:04;11.48;;;4.20;;
22363;SDS011;11349;53.412;-1.328;2022-11-21T06:03:32;11.88;;;4.07;;
22363;SDS011;11349;53.412;-1.328;2022-11-21T06:06:04;11.68;;;4.40;;
22363;SDS011;11349;53.412;-1.328;2022-11-21T06:08:48;16.45;;;4.03;;
22363;SDS011;11349;53.412;-1.328;2022-11-21T06:11:14;12.02;;;5.00;;
22363;SDS011;11349;53.412;-1.328;2022-11-21T06:13:41;16.90;;;5.20;;
22363;SDS011;11349;53.412;-1.328;2022-11-21T06:16:14;14.55;;;5.15;;
22363;SDS011;11349;53.412;-1.328;2022-11-21T06:18:43;14.60;;;5.32;;
22363;SDS011;11349;53.412;-1.328;2022-11-21T06:21:11;13.30;;;5.28;;
22363;SDS011;11349;53.412;-1.328;2022-11-21T06:23:51;12.77;;;4.85;;
22363;SDS011;11349;53.412;-1.328;2022-11-21T06:26:19;15.35;;;4.75;;
22363;SDS011;11349;53.412;-1.328;2022-11-21T06:28:47;15.73;;;5.93;;
22363;SDS011;11349;53.412;-1.328;2022-11-21T06:31:13;12.63;;;4.40;;
22363;SDS011;11349;53.412;-1.328;2022-11-21T06:33:39;13.43;;;4.10;;
22363;SDS011;11349;53.412;-1.328;2022-11-21T06:36:07;13.10;;;4.38;;
22363;SDS011;11349;53.412;-1.328;2022-11-21T06:38:35;11.05;;;4.57;;
22363;SDS011;11349;53.412;-1.328;2022-11-21T06:41:04;12.70;;;4.57;;
22363;SDS011;11349;53.412;-1.328;2022-11-21T06:43:43;14.27;;;4.65;;
22363;SDS011;11349;53.412;-1.328;2022-11-21T06:46:12;12.90;;;4.80;;
22363;SDS011;11349;53.412;-1.328;2022-11-21T06:48:39;13.88;;;4.88;;
22363;SDS011;11349;53.412;-1.328;2022-11-21T06:51:18;12.63;;;5.10;;
22363;SDS011;11349;53.412;-1.328;2022-11-21T06:53:46;8.93;;;5.03;;
22363;SDS011;11349;53.412;-1.328;2022-11-21T06:56:13;12.05;;;4.70;;
22363;SDS011;11349;53.412;-1.328;2022-11-21T06:58:39;11.13;;;4.60;;
22363;SDS011;11349;53.412;-1.328;2022-11-21T07:01:08;10.23;;;4.70;;
22363;SDS011;11349;53.412;-1.328;2022-11-21T07:03:34;16.25;;;5.80;;
22363;SDS011;11349;53.412;-1.328;2022-11-21T07:06:01;12.20;;;5.47;;
22363;SDS011;11349;53.412;-1.328;2022-11-21T07:08:28;8.93;;;5.25;;
22363;SDS011;11349;53.412;-1.328;2022-11-21T07:10:54;14.88;;;6.00;;
22363;SDS011;11349;53.412;-1.328;2022-11-21T07:13:20;12.77;;;5.60;;
22363;SDS011;11349;53.412;-1.328;2022-11-21T07:15:47;12.30;;;5.20;;
22363;SDS011;11349;53.412;-1.328;2022-11-21T07:18:14;15.60;;;5.18;;
22363;SDS011;11349;53.412;-1.328;2022-11-21T07:20:40;13.32;;;4.63;;
22363;SDS011;11349;53.412;-1.328;2022-11-21T07:23:06;24.25;;;5.55;;
22363;SDS011;11349;53.412;-1.328;2022-11-21T07:25:32;14.30;;;6.43;;
22363;SDS011;11349;53.412;-1.328;2022-11-21T07:28:01;16.92;;;7.82;;
22363;SDS011;11349;53.412;-1.328;2022-11-21T07:30:28;19.75;;;6.63;;
22363;SDS011;11349;53.412;-1.328;2022-11-21T07:33:00;14.18;;;6.25;;
22363;SDS011;11349;53.412;-1.328;2022-11-21T07:35:28;14.68;;;6.20;;
22363;SDS011;11349;53.412;-1.328;2022-11-21T07:37:54;10.18;;;6.43;;
22363;SDS011;11349;53.412;-1.328;2022-11-21T07:40:19;15.90;;;6.28;;
22363;SDS011;11349;53.412;-1.328;2022-11-21T07:42:46;13.02;;;5.95;;
22363;SDS011;11349;53.412;-1.328;2022-11-21T07:45:12;13.02;;;6.03;;
22363;SDS011;11349;53.412;-1.328;2022-11-21T07:47:38;13.38;;;5.60;;
22363;SDS011;11349;53.412;-1.328;2022-11-21T07:50:05;19.45;;;6.07;;
22363;SDS011;11349;53.412;-1.328;2022-11-21T07:52:31;14.73;;;5.35;;
22363;SDS011;11349;53.412;-1.328;2022-11-21T07:54:57;23.67;;;6.35;;
22363;SDS011;11349;53.412;-1.328;2022-11-21T07:57:23;14.98;;;5.47;;
22363;SDS011;11349;53.412;-1.328;2022-11-21T07:59:50;16.13;;;5.20;;
22363;SDS011;11349;53.412;-1.328;2022-11-21T08:02:19;18.33;;;6.60;;
22363;SDS011;11349;53.412;-1.328;2022-11-21T08:04:48;18.38;;;6.43;;
22363;SDS011;11349;53.412;-1.328;2022-11-21T08:07:17;18.00;;;5.78;;
22363;SDS011;11349;53.412;-1.328;2022-11-21T08:09:44;22.08;;;7.22;;
22363;SDS011;11349;53.412;-1.328;2022-11-21T08:12:10;18.77;;;6.75;;
22363;SDS011;11349;53.412;-1.328;2022-11-21T08:14:39;13.73;;;6.45;;
22363;SDS011;11349;53.412;-1.328;2022-11-21T08:17:06;16.67;;;6.72;;
22363;SDS011;11349;53.412;-1.328;2022-11-21T08:19:32;17.83;;;7.30;;
22363;SDS011;11349;53.412;-1.328;2022-11-21T08:21:58;15.23;;;7.65;;
22363;SDS011;11349;53.412;-1.328;2022-11-21T08:24:24;24.73;;;8.57;;
22363;SDS011;11349;53.412;-1.328;2022-11-21T08:26:53;18.73;;;7.07;;
22363;SDS011;11349;53.412;-1.328;2022-11-21T08:29:18;17.67;;;7.80;;
22363;SDS011;11349;53.412;-1.328;2022-11-21T08:31:44;20.02;;;8.05;;
22363;SDS011;11349;53.412;-1.328;2022-11-21T08:34:10;20.55;;;8.90;;
22363;SDS011;11349;53.412;-1.328;2022-11-21T08:36:36;20.33;;;9.45;;
22363;SDS011;11349;53.412;-1.328;2022-11-21T08:39:02;22.45;;;10.27;;
22363;SDS011;11349;53.412;-1.328;2022-11-21T08:41:29;21.20;;;9.65;;
22363;SDS011;11349;53.412;-1.328;2022-11-21T08:44:14;21.88;;;9.68;;
22363;SDS011;11349;53.412;-1.328;2022-11-21T08:46:39;21.17;;;10.02;;
22363;SDS011;11349;53.412;-1.328;2022-11-21T08:49:06;21.67;;;9.50;;
22363;SDS011;11349;53.412;-1.328;2022-11-21T08:51:32;20.80;;;9.02;;
22363;SDS011;11349;53.412;-1.328;2022-11-21T08:54:01;21.63;;;9.27;;
22363;SDS011;11349;53.412;-1.328;2022-11-21T08:56:28;20.10;;;8.60;;
22363;SDS011;11349;53.412;-1.328;2022-11-21T08:58:54;18.52;;;9.07;;
22363;SDS011;11349;53.412;-1.328;2022-11-21T09:01:20;18.30;;;9.00;;
22363;SDS011;11349;53.412;-1.328;2022-11-21T09:03:46;22.10;;;8.88;;
22363;SDS011;11349;53.412;-1.328;2022-11-21T09:06:12;18.15;;;7.63;;
22363;SDS011;11349;53.412;-1.328;2022-11-21T09:08:38;15.45;;;8.80;;
22363;SDS011;11349;53.412;-1.328;2022-11-21T09:11:04;16.23;;;7.70;;
22363;SDS011;11349;53.412;-1.328;2022-11-21T09:13:31;16.05;;;7.90;;
22363;SDS011;11349;53.412;-1.328;2022-11-21T09:15:58;23.33;;;8.70;;
22363;SDS011;11349;53.412;-1.328;2022-11-21T09:18:42;17.65;;;7.55;;
22363;SDS011;11349;53.412;-1.328;2022-11-21T09:21:08;18.90;;;8.45;;
22363;SDS011;11349;53.412;-1.328;2022-11-21T09:23:37;20.20;;;9.27;;
22363;SDS011;11349;53.412;-1.328;2022-11-21T09:26:03;20.02;;;8.13;;
22363;SDS011;11349;53.412;-1.328;2022-11-21T09:28:29;15.88;;;9.25;;
22363;SDS011;11349;53.412;-1.328;2022-11-21T09:30:54;18.30;;;8.95;;
22363;SDS011;11349;53.412;-1.328;2022-11-21T09:33:20;18.83;;;8.95;;
22363;SDS011;11349;53.412;-1.328;2022-11-21T09:35:46;16.80;;;7.97;;
22363;SDS011;11349;53.412;-1.328;2022-11-21T09:38:11;16.88;;;6.97;;
22363;SDS011;11349;53.412;-1.328;2022-11-21T09:40:38;19.58;;;8.02;;
22363;SDS011;11349;53.412;-1.328;2022-11-21T09:43:30;15.13;;;7.50;;
22363;SDS011;11349;53.412;-1.328;2022-11-21T09:46:10;15.23;;;6.60;;
22363;SDS011;11349;53.412;-1.328;2022-11-21T09:48:45;14.75;;;6.68;;
22363;SDS011;11349;53.412;-1.328;2022-11-21T09:51:18;16.50;;;6.05;;
22363;SDS011;11349;53.412;-1.328;2022-11-21T09:56:12;15.45;;;6.53;;
22363;SDS011;11349;53.412;-1.328;2022-11-21T09:58:41;20.05;;;8.15;;
22363;SDS011;11349;53.412;-1.328;2022-11-21T10:01:27;19.95;;;7.72;;
22363;SDS011;11349;53.412;-1.328;2022-11-21T10:03:53;17.25;;;8.23;;
22363;SDS011;11349;53.412;-1.328;2022-11-21T10:06:26;17.13;;;6.97;;
22363;SDS011;11349;53.412;-1.328;2022-11-21T10:08:59;15.80;;;6.28;;
22363;SDS011;11349;53.412;-1.328;2022-11-21T10:23:31;16.27;;;7.88;;
22363;SDS011;11349;53.412;-1.328;2022-11-21T10:26:15;14.52;;;6.68;;
22363;SDS011;11349;53.412;-1.328;2022-11-21T10:29:17;16.73;;;7.38;;
22363;SDS011;11349;53.412;-1.328;2022-11-21T10:31:43;15.73;;;9.07;;
22363;SDS011;11349;53.412;-1.328;2022-11-21T10:34:14;17.98;;;7.30;;
22363;SDS011;11349;53.412;-1.328;2022-11-21T10:36:45;17.80;;;7.65;;
22363;SDS011;11349;53.412;-1.328;2022-11-21T10:42:11;11.82;;;5.15;;
22363;SDS011;11349;53.412;-1.328;2022-11-21T10:44:59;20.88;;;6.75;;
22363;SDS011;11349;53.412;-1.328;2022-11-21T10:47:42;20.52;;;7.95;;
22363;SDS011;11349;53.412;-1.328;2022-11-21T10:52:37;9.05;;;4.68;;
22363;SDS011;11349;53.412;-1.328;2022-11-21T10:55:09;11.35;;;5.07;;
22363;SDS011;11349;53.412;-1.328;2022-11-21T11:02:36;11.98;;;5.55;;
22363;SDS011;11349;53.412;-1.328;2022-11-21T11:05:35;13.13;;;4.82;;
22363;SDS011;11349;53.412;-1.328;2022-11-21T11:08:07;12.27;;;5.22;;
22363;SDS011;11349;53.412;-1.328;2022-11-21T11:10:38;12.82;;;4.78;;
22363;SDS011;11349;53.412;-1.328;2022-11-21T11:13:15;19.95;;;5.97;;
22363;SDS011;11349;53.412;-1.328;2022-11-21T11:16:05;13.38;;;4.90;;
22363;SDS011;11349;53.412;-1.328;2022-11-21T11:18:31;16.80;;;4.90;;
22363;SDS011;11349;53.412;-1.328;2022-11-21T11:21:15;20.13;;;6.97;;
22363;SDS011;11349;53.412;-1.328;2022-11-21T11:23:50;14.23;;;4.63;;
22363;SDS011;11349;53.412;-1.328;2022-11-21T11:29:12;18.00;;;5.10;;
22363;SDS011;11349;53.412;-1.328;2022-11-21T11:31:44;12.98;;;5.00;;
22363;SDS011;11349;53.412;-1.328;2022-11-21T11:34:25;14.25;;;4.68;;
22363;SDS011;11349;53.412;-1.328;2022-11-21T11:49:01;13.20;;;4.47;;
22363;SDS011;11349;53.412;-1.328;2022-11-21T11:51:37;10.98;;;4.45;;
22363;SDS011;11349;53.412;-1.328;2022-11-21T11:54:28;13.75;;;4.95;;
22363;SDS011;11349;53.412;-1.328;2022-11-21T11:57:12;13.52;;;4.68;;
22363;SDS011;11349;53.412;-1.328;2022-11-21T11:59:39;11.77;;;4.38;;
22363;SDS011;11349;53.412;-1.328;2022-11-21T12:02:35;17.90;;;5.43;;
22363;SDS011;11349;53.412;-1.328;2022-11-21T12:05:29;11.32;;;4.32;;
22363;SDS011;11349;53.412;-1.328;2022-11-21T12:08:08;16.42;;;4.57;;
22363;SDS011;11349;53.412;-1.328;2022-11-21T12:10:47;15.60;;;4.75;;
22363;SDS011;11349;53.412;-1.328;2022-11-21T12:13:37;15.18;;;5.00;;
22363;SDS011;11349;53.412;-1.328;2022-11-21T12:16:07;10.02;;;4.65;;
22363;SDS011;11349;53.412;-1.328;2022-11-21T12:18:47;15.80;;;4.43;;
22363;SDS011;11349;53.412;-1.328;2022-11-21T12:21:15;20.67;;;4.47;;
22363;SDS011;11349;53.412;-1.328;2022-11-21T12:23:48;7.63;;;3.67;;
22363;SDS011;11349;53.412;-1.328;2022-11-21T12:26:25;14.57;;;5.97;;
22363;SDS011;11349;53.412;-1.328;2022-11-21T12:34:03;13.70;;;3.45;;
22363;SDS011;11349;53.412;-1.328;2022-11-21T12:39:20;13.35;;;3.72;;
22363;SDS011;11349;53.412;-1.328;2022-11-21T12:45:31;12.65;;;3.72;;
22363;SDS011;11349;53.412;-1.328;2022-11-21T12:57:13;12.38;;;3.72;;
22363;SDS011;11349;53.412;-1.328;2022-11-21T13:05:41;11.23;;;4.32;;
22363;SDS011;11349;53.412;-1.328;2022-11-21T13:08:15;9.48;;;3.83;;
22363;SDS011;11349;53.412;-1.328;2022-11-21T13:10:52;17.15;;;4.45;;
22363;SDS011;11349;53.412;-1.328;2022-11-21T13:13:42;14.07;;;4.43;;
22363;SDS011;11349;53.412;-1.328;2022-11-21T13:16:18;10.93;;;3.97;;
22363;SDS011;11349;53.412;-1.328;2022-11-21T13:19:18;12.63;;;4.78;;
22363;SDS011;11349;53.412;-1.328;2022-11-21T13:21:51;14.15;;;4.00;;
22363;SDS011;11349;53.412;-1.328;2022-11-21T13:27:08;12.27;;;4.80;;
22363;SDS011;11349;53.412;-1.328;2022-11-21T13:30:16;21.33;;;6.63;;
22363;SDS011;11349;53.412;-1.328;2022-11-21T13:32:45;20.52;;;7.88;;
22363;SDS011;11349;53.412;-1.328;2022-11-21T13:38:02;16.30;;;6.15;;
22363;SDS011;11349;53.412;-1.328;2022-11-21T13:45:39;16.02;;;4.40;;
22363;SDS011;11349;53.412;-1.328;2022-11-21T13:48:15;18.60;;;5.45;;
22363;SDS011;11349;53.412;-1.328;2022-11-21T14:08:38;13.15;;;3.85;;
22363;SDS011;11349;53.412;-1.328;2022-11-21T14:10:57;15.50;;;4.65;;
22363;SDS011;11349;53.412;-1.328;2022-11-21T14:13:30;17.30;;;4.53;;
22363;SDS011;11349;53.412;-1.328;2022-11-21T14:18:45;21.92;;;4.60;;
22363;SDS011;11349;53.412;-1.328;2022-11-21T14:21:19;18.20;;;4.53;;
22363;SDS011;11349;53.412;-1.328;2022-11-21T14:23:50;22.42;;;4.57;;
22363;SDS011;11349;53.412;-1.328;2022-11-21T14:26:33;14.63;;;4.10;;
22363;SDS011;11349;53.412;-1.328;2022-11-21T14:32:00;17.98;;;4.03;;
22363;SDS011;11349;53.412;-1.328;2022-11-21T14:34:27;16.70;;;4.10;;
22363;SDS011;11349;53.412;-1.328;2022-11-21T14:36:56;21.90;;;4.95;;
22363;SDS011;11349;53.412;-1.328;2022-11-21T14:39:25;18.20;;;4.55;;
22363;SDS011;11349;53.412;-1.328;2022-11-21T14:41:53;20.10;;;4.50;;
22363;SDS011;11349;53.412;-1.328;2022-11-21T14:44:24;16.85;;;4.35;;
22363;SDS011;11349;53.412;-1.328;2022-11-21T14:46:51;19.05;;;4.72;;
22363;SDS011;11349;53.412;-1.328;2022-11-21T14:49:37;23.63;;;4.75;;
22363;SDS011;11349;53.412;-1.328;2022-11-21T14:54:39;14.98;;;4.63;;
22363;SDS011;11349;53.412;-1.328;2022-11-21T14:57:15;17.35;;;4.80;;
22363;SDS011;11349;53.412;-1.328;2022-11-21T14:59:45;13.75;;;5.53;;
22363;SDS011;11349;53.412;-1.328;2022-11-21T15:04:38;25.70;;;8.27;;
22363;SDS011;11349;53.412;-1.328;2022-11-21T15:07:14;28.83;;;8.57;;
22363;SDS011;11349;53.412;-1.328;2022-11-21T15:09:49;15.35;;;6.00;;
22363;SDS011;11349;53.412;-1.328;2022-11-21T15:17:54;22.58;;;6.80;;
22363;SDS011;11349;53.412;-1.328;2022-11-21T15:20:21;17.42;;;7.45;;
22363;SDS011;11349;53.412;-1.328;2022-11-21T15:22:48;20.33;;;5.82;;
22363;SDS011;11349;53.412;-1.328;2022-11-21T15:25:22;20.60;;;9.60;;
22363;SDS011;11349;53.412;-1.328;2022-11-21T15:27:50;72.93;;;30.30;;
22363;SDS011;11349;53.412;-1.328;2022-11-21T15:30:29;22.50;;;7.13;;
22363;SDS011;11349;53.412;-1.328;2022-11-21T15:33:15;16.67;;;6.22;;
22363;SDS011;11349;53.412;-1.328;2022-11-21T15:38:17;14.73;;;4.45;;
22363;SDS011;11349;53.412;-1.328;2022-11-21T15:43:38;15.95;;;5.57;;
22363;SDS011;11349;53.412;-1.328;2022-11-21T15:48:57;15.82;;;6.63;;
22363;SDS011;11349;53.412;-1.328;2022-11-21T15:51:24;26.70;;;8.40;;
22363;SDS011;11349;53.412;-1.328;2022-11-21T15:54:04;21.15;;;7.13;;
22363;SDS011;11349;53.412;-1.328;2022-11-21T15:56:32;16.73;;;5.43;;
22363;SDS011;11349;53.412;-1.328;2022-11-21T15:58:58;19.70;;;5.97;;
22363;SDS011;11349;53.412;-1.328;2022-11-21T16:01:24;13.98;;;4.78;;
22363;SDS011;11349;53.412;-1.328;2022-11-21T16:03:57;18.38;;;5.80;;
22363;SDS011;11349;53.412;-1.328;2022-11-21T16:06:25;20.40;;;6.47;;
22363;SDS011;11349;53.412;-1.328;2022-11-21T16:08:51;18.80;;;6.28;;
22363;SDS011;11349;53.412;-1.328;2022-11-21T16:13:47;33.42;;;12.60;;
22363;SDS011;11349;53.412;-1.328;2022-11-21T16:16:17;23.80;;;8.75;;
22363;SDS011;11349;53.412;-1.328;2022-11-21T16:18:43;19.58;;;6.38;;
22363;SDS011;11349;53.412;-1.328;2022-11-21T16:21:09;20.50;;;6.78;;
22363;SDS011;11349;53.412;-1.328;2022-11-21T16:23:35;20.63;;;6.38;;
22363;SDS011;11349;53.412;-1.328;2022-11-21T16:26:01;22.60;;;5.90;;
22363;SDS011;11349;53.412;-1.328;2022-11-21T16:28:28;15.75;;;6.22;;
22363;SDS011;11349;53.412;-1.328;2022-11-21T16:30:54;27.67;;;8.23;;
22363;SDS011;11349;53.412;-1.328;2022-11-21T16:33:21;20.17;;;5.75;;
22363;SDS011;11349;53.412;-1.328;2022-11-21T16:35:47;16.30;;;5.97;;
22363;SDS011;11349;53.412;-1.328;2022-11-21T16:38:19;19.67;;;4.93;;
22363;SDS011;11349;53.412;-1.328;2022-11-21T16:40:53;13.57;;;4.80;;
22363;SDS011;11349;53.412;-1.328;2022-11-21T16:43:23;13.50;;;4.65;;
22363;SDS011;11349;53.412;-1.328;2022-11-21T16:45:51;13.57;;;4.57;;
22363;SDS011;11349;53.412;-1.328;2022-11-21T16:48:20;18.40;;;5.13;;
22363;SDS011;11349;53.412;-1.328;2022-11-21T16:50:47;19.13;;;5.05;;